sensor_id;sensor_type;location;lat;lon;timestamp;pressure;altitude;pressure_sealevel;temperature;humidity
46382;BME280;66809;52.974;-2.514;2023-08-30T00:01:39;1001.9282731040498;;;11.577045877327311;38.47514602985745
46382;BME280;66809;52.974;-2.514;2023-08-30T00:03:39;1001.9226059706918;;;11.646265004964247;38.46173591383588
46382;BME280;66809;52.974;-2.514;2023-08-30T00:05:39;1001.9182406505515;;;11.709762370369681;38.44430258809957
46382;BME280;66809;52.974;-2.514;2023-08-30T00:07:39;1001.9135734555457;;;11.771820949169117;38.43817975159424
46382;BME280;66809;52.974;-2.514;2023-08-30T00:09:39;1001.9097390090774;;;11.827199915214646;38.44218499614102
46382;BME280;66809;52.974;-2.514;2023-08-30T00:11:39;1001.906659834032;;;11.880459485383362;38.45829107501983
46382;BME280;66809;52.974;-2.514;2023-08-30T00:13:39;1001.9026792591311;;;11.923949494784953;38.48473708234153
46382;BME280;66809;52.974;-2.514;2023-08-30T00:15:39;1001.8981818092883;;;11.9615412227335;38.52222533064407
46382;BME280;66809;52.974;-2.514;2023-08-30T00:17:39;1001.8942154056191;;;12.005971037433802;38.546948527428235
46382;BME280;66809;52.974;-2.514;2023-08-30T00:19:39;1001.8903204643345;;;12.037813634809343;38.57415380213799
46382;BME280;66809;52.974;-2.514;2023-08-30T00:21:39;1001.8839177363775;;;12.060486146273695;38.61228502063738
46382;BME280;66809;52.974;-2.514;2023-08-30T00:23:39;1001.8777904041664;;;12.084952480486903;38.650350716016746
46382;BME280;66809;52.974;-2.514;2023-08-30T00:25:39;1001.8745866302457;;;12.107043925746085;38.6918708739633
46382;BME280;66809;52.974;-2.514;2023-08-30T00:27:39;1001.8719130546344;;;12.13116657170178;38.736746058612916
46382;BME280;66809;52.974;-2.514;2023-08-30T00:29:39;1001.8699075718779;;;12.152844200044237;38.788127687102495
46382;BME280;66809;52.974;-2.514;2023-08-30T00:31:39;1001.8689023245539;;;12.175051173678055;38.84659199683425
46382;BME280;66809;52.974;-2.514;2023-08-30T00:33:39;1001.866831932221;;;12.186516036267072;38.907429395946274
46382;BME280;66809;52.974;-2.514;2023-08-30T00:35:39;1001.8638327478886;;;12.209922421375014;38.963956471010505
46382;BME280;66809;52.974;-2.514;2023-08-30T00:37:39;1001.8601410336986;;;12.21634600089197;39.02069809214105
46382;BME280;66809;52.974;-2.514;2023-08-30T00:39:39;1001.8544392629968;;;12.220022067372868;39.076175275141274
46382;BME280;66809;52.974;-2.514;2023-08-30T00:41:40;1001.8471032735055;;;12.230071117761446;39.136293345871245
46382;BME280;66809;52.974;-2.514;2023-08-30T00:43:39;1001.8379576981437;;;12.235089396242731;39.19848435242022
46382;BME280;66809;52.974;-2.514;2023-08-30T00:45:40;1001.8278389466407;;;12.245079639120263;39.267572964628954
46382;BME280;66809;52.974;-2.514;2023-08-30T00:47:39;1001.817662228994;;;12.244615581066876;39.329756163582125
46382;BME280;66809;52.974;-2.514;2023-08-30T00:49:40;1001.8092351110422;;;12.254633188542698;39.39390781411117
46382;BME280;66809;52.974;-2.514;2023-08-30T00:51:39;1001.8005245211432;;;12.26334221236483;39.45253942764852
46382;BME280;66809;52.974;-2.514;2023-08-30T00:53:39;1001.7922975817197;;;12.289111846049398;39.50701455215088
46382;BME280;66809;52.974;-2.514;2023-08-30T00:55:39;1001.7825005524065;;;12.314612616437099;39.555389851845725
46382;BME280;66809;52.974;-2.514;2023-08-30T00:57:39;1001.7706637865722;;;12.333421134888209;39.608779854916534
46382;BME280;66809;52.974;-2.514;2023-08-30T00:59:39;1001.7594616263071;;;12.357447411250568;39.6481717522717
46382;BME280;66809;52.974;-2.514;2023-08-30T01:01:40;1001.7476792617448;;;12.384716954711081;39.68736153643765
46382;BME280;66809;52.974;-2.514;2023-08-30T01:03:39;1001.7352117204664;;;12.403840665437606;39.720245765221975
46382;BME280;66809;52.974;-2.514;2023-08-30T01:05:39;1001.7201092465762;;;12.41713247098563;39.7563784066551
46382;BME280;66809;52.974;-2.514;2023-08-30T01:07:40;1001.7042272355728;;;12.435634438559754;39.788974034481356
46382;BME280;66809;52.974;-2.514;2023-08-30T01:09:39;1001.6884251422402;;;12.459688141103106;39.82048909361049
46382;BME280;66809;52.974;-2.514;2023-08-30T01:11:43;1001.6721135733319;;;12.475223386947128;39.84678071831673
46382;BME280;66809;52.974;-2.514;2023-08-30T01:13:44;1001.656657438762;;;12.49822606674135;39.868836997871774
46382;BME280;66809;52.974;-2.514;2023-08-30T01:15:39;1001.6405902195634;;;12.534116388629887;39.87582459850258
46382;BME280;66809;52.974;-2.514;2023-08-30T01:17:40;1001.6241853984313;;;12.549003925893565;39.886448779922276
46382;BME280;66809;52.974;-2.514;2023-08-30T01:19:45;1001.6081811812056;;;12.575849383787869;39.89303082040615
46382;BME280;66809;52.974;-2.514;2023-08-30T01:21:48;1001.595446642184;;;12.613999936982024;39.905817875687916
46382;BME280;66809;52.974;-2.514;2023-08-30T01:23:45;1001.5829386002642;;;12.645752313980699;39.91061885968084
46382;BME280;66809;52.974;-2.514;2023-08-30T01:25:47;1001.5715736732624;;;12.68002242399265;39.91128493908895
46382;BME280;66809;52.974;-2.514;2023-08-30T01:27:40;1001.5612441581903;;;12.7172782607734;39.90525331547087
46382;BME280;66809;52.974;-2.514;2023-08-30T01:29:43;1001.5518368225569;;;12.73426013088157;39.88583568369159
46382;BME280;66809;52.974;-2.514;2023-08-30T01:31:40;1001.5411379000527;;;12.760651121064505;39.86888370467084
46382;BME280;66809;52.974;-2.514;2023-08-30T01:33:40;1001.5300326437599;;;12.794062067088069;39.85253058337547
46382;BME280;66809;52.974;-2.514;2023-08-30T01:35:40;1001.5180593911349;;;12.811320562745351;39.85295974472459
46382;BME280;66809;52.974;-2.514;2023-08-30T01:37:39;1001.5059560264366;;;12.82825468207826;39.857730968937595
46382;BME280;66809;52.974;-2.514;2023-08-30T01:39:40;1001.493969889943;;;12.856570263016973;39.86625138261297
46382;BME280;66809;52.974;-2.514;2023-08-30T01:41:39;1001.4818430203904;;;12.866617454657147;39.87615829127396
46382;BME280;66809;52.974;-2.514;2023-08-30T01:43:40;1001.469687835468;;;12.8795024399719;39.8898124103195
46382;BME280;66809;52.974;-2.514;2023-08-30T01:45:41;1001.457944127898;;;12.882028876448151;39.90415700623636
46382;BME280;66809;52.974;-2.514;2023-08-30T01:47:41;1001.4454228513063;;;12.899843830434575;39.91830372307696
46382;BME280;66809;52.974;-2.514;2023-08-30T01:49:39;1001.4301026999748;;;12.913659308993026;39.92211135051525
46382;BME280;66809;52.974;-2.514;2023-08-30T01:51:40;1001.4152075802691;;;12.92474188077939;39.93361767351054
46382;BME280;66809;52.974;-2.514;2023-08-30T01:53:40;1001.4007476789375;;;12.920393860711735;39.9504539889113
46382;BME280;66809;52.974;-2.514;2023-08-30T01:55:40;1001.3870828527721;;;12.928684713420994;39.96867215512059
46382;BME280;66809;52.974;-2.514;2023-08-30T01:57:39;1001.3752079290349;;;12.926500127097272;39.99270969701272
46382;BME280;66809;52.974;-2.514;2023-08-30T01:59:39;1001.3626667028599;;;12.927884326476029;40.022261167265015
46382;BME280;66809;52.974;-2.514;2023-08-30T02:01:39;1001.3500031997662;;;12.914896616692358;40.048568942763055
46382;BME280;66809;52.974;-2.514;2023-08-30T02:03:39;1001.3377651861141;;;12.901671472301059;40.07567397362698
46382;BME280;66809;52.974;-2.514;2023-08-30T02:05:47;1001.3262136980743;;;12.895838892353408;40.09864929054932
46382;BME280;66809;52.974;-2.514;2023-08-30T02:07:47;1001.3148299358552;;;12.878126944684862;40.12871328831485
46382;BME280;66809;52.974;-2.514;2023-08-30T02:09:42;1001.3036549770811;;;12.860272148114712;40.15405466482632
46382;BME280;66809;52.974;-2.514;2023-08-30T02:11:40;1001.2922473292512;;;12.856521134674978;40.17241120495894
46382;BME280;66809;52.974;-2.514;2023-08-30T02:13:39;1001.2820521471788;;;12.842422882897058;40.18564823418803
46382;BME280;66809;52.974;-2.514;2023-08-30T02:15:41;1001.2732664402556;;;12.815226931044311;40.19948568787888
46382;BME280;66809;52.974;-2.514;2023-08-30T02:17:39;1001.2644204002725;;;12.807160068204901;40.20653415400939
46382;BME280;66809;52.974;-2.514;2023-08-30T02:19:40;1001.2545300444227;;;12.784261720700696;40.215760206002315
46382;BME280;66809;52.974;-2.514;2023-08-30T02:21:40;1001.2439664144421;;;12.7512660364871;40.21652295759608
46382;BME280;66809;52.974;-2.514;2023-08-30T02:23:40;1001.2337165287115;;;12.715892511625812;40.230686551209835
46382;BME280;66809;52.974;-2.514;2023-08-30T02:25:40;1001.2231242267881;;;12.696244408146827;40.243762676959264
46382;BME280;66809;52.974;-2.514;2023-08-30T02:27:39;1001.2104756158968;;;12.665893245026064;40.25467626348746
46382;BME280;66809;52.974;-2.514;2023-08-30T02:29:39;1001.1968649229442;;;12.658869380764264;40.27386325227891
46382;BME280;66809;52.974;-2.514;2023-08-30T02:31:39;1001.1812819603972;;;12.642237678838173;40.291866086043385
46382;BME280;66809;52.974;-2.514;2023-08-30T02:33:39;1001.16693293897;;;12.625807628148749;40.307994871386455
46382;BME280;66809;52.974;-2.514;2023-08-30T02:35:39;1001.1541060290549;;;12.613880463878552;40.30596505544123
46382;BME280;66809;52.974;-2.514;2023-08-30T02:37:39;1001.142843905421;;;12.604527318962022;40.29910394503054
46382;BME280;66809;52.974;-2.514;2023-08-30T02:39:39;1001.1328205380184;;;12.591619272965996;40.292237951140926
46382;BME280;66809;52.974;-2.514;2023-08-30T02:41:39;1001.1232060898334;;;12.587396991829534;40.281326845303305
46382;BME280;66809;52.974;-2.514;2023-08-30T02:43:39;1001.1137479024644;;;12.573222387488665;40.26273338290799
46382;BME280;66809;52.974;-2.514;2023-08-30T02:45:39;1001.1055110664119;;;12.564625460116785;40.24070156870117
46382;BME280;66809;52.974;-2.514;2023-08-30T02:47:39;1001.0974560851296;;;12.551530399703916;40.219465301808434
46382;BME280;66809;52.974;-2.514;2023-08-30T02:49:40;1001.0907823619017;;;12.549211093473156;40.209558364293606
46382;BME280;66809;52.974;-2.514;2023-08-30T02:51:39;1001.0840896491746;;;12.537000457261717;40.193041566725995
46382;BME280;66809;52.974;-2.514;2023-08-30T02:53:39;1001.0784708933425;;;12.526260217272066;40.16706777262225
46382;BME280;66809;52.974;-2.514;2023-08-30T02:55:39;1001.0738581216615;;;12.505903744052722;40.14138951839243
46382;BME280;66809;52.974;-2.514;2023-08-30T02:57:39;1001.0691385958257;;;12.49383812284518;40.107237488270464
46382;BME280;66809;52.974;-2.514;2023-08-30T02:59:39;1001.0655518350054;;;12.485351858813353;40.07120960344113
46382;BME280;66809;52.974;-2.514;2023-08-30T03:01:39;1001.0635127917794;;;12.490145206427448;40.03635845151657
46382;BME280;66809;52.974;-2.514;2023-08-30T03:03:39;1001.0616020391691;;;12.488179082814245;39.99874761238975
46382;BME280;66809;52.974;-2.514;2023-08-30T03:05:39;1001.0597847605711;;;12.499355970359444;39.96675373554922
46382;BME280;66809;52.974;-2.514;2023-08-30T03:07:39;1001.0585977936445;;;12.508944836745505;39.93053149759482
46382;BME280;66809;52.974;-2.514;2023-08-30T03:09:39;1001.0557755381274;;;12.514441814673283;39.89687389176992
46382;BME280;66809;52.974;-2.514;2023-08-30T03:11:39;1001.053433556705;;;12.50409866407299;39.87503360361744
46382;BME280;66809;52.974;-2.514;2023-08-30T03:13:40;1001.0508243468626;;;12.506352377317496;39.854279735232566
46382;BME280;66809;52.974;-2.514;2023-08-30T03:15:39;1001.0478319412528;;;12.498796606932972;39.837859755604526
46382;BME280;66809;52.974;-2.514;2023-08-30T03:17:39;1001.044972666855;;;12.4906778899009;39.83591574474874
46382;BME280;66809;52.974;-2.514;2023-08-30T03:19:39;1001.0414278907091;;;12.493343320979086;39.83259170258721
46382;BME280;66809;52.974;-2.514;2023-08-30T03:21:39;1001.0365534465509;;;12.49115658399913;39.833688997434024
46382;BME280;66809;52.974;-2.514;2023-08-30T03:23:39;1001.0296341560418;;;12.49539539308936;39.82483894319528
46382;BME280;66809;52.974;-2.514;2023-08-30T03:25:39;1001.0206512851994;;;12.493998465239509;39.8141199161379
46382;BME280;66809;52.974;-2.514;2023-08-30T03:27:40;1001.0111843191329;;;12.495111645598211;39.804685712279166
46382;BME280;66809;52.974;-2.514;2023-08-30T03:29:39;1001.0000828314036;;;12.472480364581008;39.7909299168513
46382;BME280;66809;52.974;-2.514;2023-08-30T03:31:39;1000.9906449392587;;;12.462958485656138;39.77993127124743
46382;BME280;66809;52.974;-2.514;2023-08-30T03:33:40;1000.9821833096324;;;12.452714014631892;39.773263878315355
46382;BME280;66809;52.974;-2.514;2023-08-30T03:35:39;1000.9733547755841;;;12.441847774645014;39.77555461967533
46382;BME280;66809;52.974;-2.514;2023-08-30T03:37:39;1000.9626483705489;;;12.43606272181462;39.77528756536015
46382;BME280;66809;52.974;-2.514;2023-08-30T03:39:40;1000.9517165916714;;;12.435585717769227;39.77383746980681
46382;BME280;66809;52.974;-2.514;2023-08-30T03:41:39;1000.9410656177262;;;12.425248814596431;39.77534184486651
46382;BME280;66809;52.974;-2.514;2023-08-30T03:43:39;1000.9309362504766;;;12.429668152006371;39.778029193695424
46382;BME280;66809;52.974;-2.514;2023-08-30T03:45:39;1000.9200203318;;;12.430753968989702;39.78347059067746
46382;BME280;66809;52.974;-2.514;2023-08-30T03:47:39;1000.9114549489203;;;12.42553187940822;39.787931391868064
46382;BME280;66809;52.974;-2.514;2023-08-30T03:49:39;1000.9040058260285;;;12.40113614209317;39.79278373946975
46382;BME280;66809;52.974;-2.514;2023-08-30T03:51:39;1000.8966787394118;;;12.39550234757903;39.79734064412791
46382;BME280;66809;52.974;-2.514;2023-08-30T03:53:39;1000.8882532791724;;;12.384610918627398;39.80554233013103
46382;BME280;66809;52.974;-2.514;2023-08-30T03:55:40;1000.879647344387;;;12.37880908183566;39.813643631166364
46382;BME280;66809;52.974;-2.514;2023-08-30T03:57:39;1000.8713574519941;;;12.377021352810768;39.81987877288554
46382;BME280;66809;52.974;-2.514;2023-08-30T03:59:39;1000.8616566932534;;;12.362374136541781;39.82119806329721
46382;BME280;66809;52.974;-2.514;2023-08-30T04:01:40;1000.8510809931801;;;12.345197851681297;39.8239004175429
46382;BME280;66809;52.974;-2.514;2023-08-30T04:03:40;1000.8397461347429;;;12.33741934364293;39.83418488080614
46382;BME280;66809;52.974;-2.514;2023-08-30T04:05:39;1000.8285153179405;;;12.313391160763427;39.842395876436015
46382;BME280;66809;52.974;-2.514;2023-08-30T04:07:39;1000.8165512442544;;;12.292696517876033;39.848341664441996
46382;BME280;66809;52.974;-2.514;2023-08-30T04:09:39;1000.8069237885262;;;12.274808212871744;39.85487330582293
46382;BME280;66809;52.974;-2.514;2023-08-30T04:11:39;1000.7968146138464;;;12.265427053146036;39.86012600727026
46382;BME280;66809;52.974;-2.514;2023-08-30T04:13:39;1000.7869664738986;;;12.239231121680266;39.867942551244184
46382;BME280;66809;52.974;-2.514;2023-08-30T04:15:40;1000.7767700370786;;;12.220637038389869;39.878703576928885
46382;BME280;66809;52.974;-2.514;2023-08-30T04:17:39;1000.7661812106379;;;12.209846458262858;39.88945452778803
46382;BME280;66809;52.974;-2.514;2023-08-30T04:19:39;1000.7553443639979;;;12.196461742636085;39.895875551828745
46382;BME280;66809;52.974;-2.514;2023-08-30T04:21:39;1000.7451879568301;;;12.19555626617258;39.899545352507765
46382;BME280;66809;52.974;-2.514;2023-08-30T04:23:39;1000.7362885999792;;;12.184984141055471;39.90587166343569
46382;BME280;66809;52.974;-2.514;2023-08-30T04:25:40;1000.7293826585599;;;12.169977796591771;39.912099275515764
46382;BME280;66809;52.974;-2.514;2023-08-30T04:27:39;1000.7243766341892;;;12.154803412202769;39.92147594116435
46382;BME280;66809;52.974;-2.514;2023-08-30T04:29:39;1000.720977076089;;;12.15356186091422;39.93616397931946
46382;BME280;66809;52.974;-2.514;2023-08-30T04:31:39;1000.7167264703437;;;12.139370544476053;39.94838848455435
46382;BME280;66809;52.974;-2.514;2023-08-30T04:33:39;1000.7126685286028;;;12.125389283029387;39.957068940610164
46382;BME280;66809;52.974;-2.514;2023-08-30T04:35:39;1000.7076764933788;;;12.106604102938446;39.9577795500888
46382;BME280;66809;52.974;-2.514;2023-08-30T04:37:39;1000.70345253418;;;12.096124412226489;39.96065895610546
46382;BME280;66809;52.974;-2.514;2023-08-30T04:39:40;1000.699343787488;;;12.077454722702923;39.96698535951672
46382;BME280;66809;52.974;-2.514;2023-08-30T04:41:40;1000.6959512161496;;;12.071017280581659;39.97478355166729
46382;BME280;66809;52.974;-2.514;2023-08-30T04:43:39;1000.6924686321635;;;12.055363976862361;39.98386087086032
46382;BME280;66809;52.974;-2.514;2023-08-30T04:45:39;1000.6908061277594;;;12.035755382694925;39.99037952169929
46382;BME280;66809;52.974;-2.514;2023-08-30T04:47:40;1000.6898305455667;;;12.022429498417344;40.001616411653565
46382;BME280;66809;52.974;-2.514;2023-08-30T04:49:39;1000.69084917551;;;12.02081199599424;40.00970085935476
46382;BME280;66809;52.974;-2.514;2023-08-30T04:51:39;1000.6919017786788;;;12.010989827229604;40.01719276893217
46382;BME280;66809;52.974;-2.514;2023-08-30T04:53:39;1000.6934329060282;;;12.010649458407597;40.0226197648531
46382;BME280;66809;52.974;-2.514;2023-08-30T04:55:39;1000.6956751456202;;;12.008863913752096;40.0268680890163
46382;BME280;66809;52.974;-2.514;2023-08-30T04:57:39;1000.698893272948;;;11.997907452513795;40.03701835023207
46382;BME280;66809;52.974;-2.514;2023-08-30T04:59:39;1000.7031944537227;;;11.996771016895332;40.04607831482711
46382;BME280;66809;52.974;-2.514;2023-08-30T05:01:39;1000.7077784149728;;;11.995552698745591;40.04371972922851
46382;BME280;66809;52.974;-2.514;2023-08-30T05:03:40;1000.7138415630426;;;12.001801792715943;40.038699018151576
46382;BME280;66809;52.974;-2.514;2023-08-30T05:05:40;1000.72078234314;;;12.000921704890581;40.03131140820731
46382;BME280;66809;52.974;-2.514;2023-08-30T05:07:39;1000.7273858415504;;;12.006996493264118;40.01801742843233
46382;BME280;66809;52.974;-2.514;2023-08-30T05:09:39;1000.7333215933854;;;12.003587342371407;40.01044000553234
46382;BME280;66809;52.974;-2.514;2023-08-30T05:11:39;1000.7415071443403;;;12.009580255643028;39.997626489190424
46382;BME280;66809;52.974;-2.514;2023-08-30T05:13:39;1000.7494654131273;;;12.02989678679635;39.982527504908916
46382;BME280;66809;52.974;-2.514;2023-08-30T05:15:39;1000.7579855335457;;;12.055523536239873;39.95766839707859
46382;BME280;66809;52.974;-2.514;2023-08-30T05:17:39;1000.766774691995;;;12.07058677365691;39.92354533093596
46382;BME280;66809;52.974;-2.514;2023-08-30T05:19:39;1000.7771033259927;;;12.084559896180547;39.889102155020595
46382;BME280;66809;52.974;-2.514;2023-08-30T05:21:39;1000.7877388730336;;;12.105901795239335;39.853842288232336
46382;BME280;66809;52.974;-2.514;2023-08-30T05:23:39;1000.7993604671852;;;12.133770078568483;39.815032060606335
46382;BME280;66809;52.974;-2.514;2023-08-30T05:25:39;1000.8112642366301;;;12.154615508956832;39.77758774135059
46382;BME280;66809;52.974;-2.514;2023-08-30T05:27:40;1000.8220715930537;;;12.17709793491204;39.75082132587713
46382;BME280;66809;52.974;-2.514;2023-08-30T05:29:39;1000.8319365244956;;;12.199859778842539;39.719024947573196
46382;BME280;66809;52.974;-2.514;2023-08-30T05:31:39;1000.8414819064765;;;12.233103298518934;39.68466451429363
46382;BME280;66809;52.974;-2.514;2023-08-30T05:33:39;1000.8505782957094;;;12.260316172969505;39.651197159666744
46382;BME280;66809;52.974;-2.514;2023-08-30T05:35:39;1000.8622682365622;;;12.295315775578949;39.61663107176623
46382;BME280;66809;52.974;-2.514;2023-08-30T05:37:40;1000.8744439670235;;;12.322320778436877;39.58304056136911
46382;BME280;66809;52.974;-2.514;2023-08-30T05:39:40;1000.8864287345324;;;12.349409776004496;39.545126838798964
46382;BME280;66809;52.974;-2.514;2023-08-30T05:41:39;1000.897720241983;;;12.368700742419268;39.513924196177705
46382;BME280;66809;52.974;-2.514;2023-08-30T05:43:39;1000.9085733582759;;;12.39552089423608;39.475711654034534
46382;BME280;66809;52.974;-2.514;2023-08-30T05:45:39;1000.9180924054298;;;12.428859020846584;39.43876958894614
46382;BME280;66809;52.974;-2.514;2023-08-30T05:47:39;1000.9266685658404;;;12.458972841356259;39.40183138100731
46382;BME280;66809;52.974;-2.514;2023-08-30T05:49:39;1000.9333481727474;;;12.49429389368901;39.360256808453435
46382;BME280;66809;52.974;-2.514;2023-08-30T05:51:39;1000.9405350199472;;;12.52848065394262;39.320557096658064
46382;BME280;66809;52.974;-2.514;2023-08-30T05:53:39;1000.9474956629168;;;12.560442989530124;39.279857093441926
46382;BME280;66809;52.974;-2.514;2023-08-30T05:55:40;1000.9542183299174;;;12.59669047088343;39.23865246378681
46382;BME280;66809;52.974;-2.514;2023-08-30T05:57:39;1000.9597543768442;;;12.63881735881474;39.195180386788714
46382;BME280;66809;52.974;-2.514;2023-08-30T05:59:39;1000.9629040593726;;;12.670754498658681;39.15152022869416
46382;BME280;66809;52.974;-2.514;2023-08-30T06:01:39;1000.9667149465753;;;12.704958103943818;39.11651338625282
46382;BME280;66809;52.974;-2.514;2023-08-30T06:03:39;1000.9708024658526;;;12.727509224540455;39.08209407135886
46382;BME280;66809;52.974;-2.514;2023-08-30T06:05:39;1000.9742915279091;;;12.762710559996515;39.05063098544141
46382;BME280;66809;52.974;-2.514;2023-08-30T06:07:39;1000.9782540289892;;;12.789267391474905;39.02073293911688
46382;BME280;66809;52.974;-2.514;2023-08-30T06:09:39;1000.9806380530922;;;12.824232685666878;38.99083743821135
46382;BME280;66809;52.974;-2.514;2023-08-30T06:11:39;1000.9822882202787;;;12.848394911261122;38.960844637422596
46382;BME280;66809;52.974;-2.514;2023-08-30T06:13:40;1000.9848761095972;;;12.872034059645282;38.93529718541479
46382;BME280;66809;52.974;-2.514;2023-08-30T06:15:39;1000.9873992407449;;;12.893940195543996;38.91577287257595
46382;BME280;66809;52.974;-2.514;2023-08-30T06:17:39;1000.9908280017881;;;12.922516316937326;38.89970464505274
46382;BME280;66809;52.974;-2.514;2023-08-30T06:19:39;1000.9938627575091;;;12.936193745686364;38.887189282040836
46382;BME280;66809;52.974;-2.514;2023-08-30T06:21:39;1000.9979968018193;;;12.95240942354105;38.88059932502014
46382;BME280;66809;52.974;-2.514;2023-08-30T06:23:40;1001.0026944599952;;;12.970582849459863;38.87094037584782
46382;BME280;66809;52.974;-2.514;2023-08-30T06:25:39;1001.0070125773034;;;12.998946806491784;38.86118253257531
46382;BME280;66809;52.974;-2.514;2023-08-30T06:27:41;1001.0110210910835;;;13.030925196916337;38.838658959522306
46382;BME280;66809;52.974;-2.514;2023-08-30T06:29:39;1001.0155388594242;;;13.064693296810267;38.81780031284828
46382;BME280;66809;52.974;-2.514;2023-08-30T06:31:39;1001.0219953580677;;;13.083576215219692;38.79259122397537
46382;BME280;66809;52.974;-2.514;2023-08-30T06:33:39;1001.0284901289035;;;13.110145040143179;38.76678250750867
46382;BME280;66809;52.974;-2.514;2023-08-30T06:35:39;1001.0343990269349;;;13.135350502373873;38.74336002962527
46382;BME280;66809;52.974;-2.514;2023-08-30T06:37:40;1001.0381508207328;;;13.15553978091537;38.72568198591424
46382;BME280;66809;52.974;-2.514;2023-08-30T06:39:39;1001.0409247777773;;;13.182013981601948;38.711237643977206
46382;BME280;66809;52.974;-2.514;2023-08-30T06:41:39;1001.0439226653299;;;13.210866039910274;38.686235475809404
46382;BME280;66809;52.974;-2.514;2023-08-30T06:43:39;1001.0473686727429;;;13.227175656324373;38.67536559417324
46382;BME280;66809;52.974;-2.514;2023-08-30T06:45:40;1001.0507100612845;;;13.252725630093277;38.666844961125584
46382;BME280;66809;52.974;-2.514;2023-08-30T06:47:39;1001.0538862927971;;;13.27930138611419;38.669105973335995
46382;BME280;66809;52.974;-2.514;2023-08-30T06:49:39;1001.0575393973231;;;13.291505197387533;38.67660895070709
46382;BME280;66809;52.974;-2.514;2023-08-30T06:51:39;1001.0617230387605;;;13.303124121079138;38.69162786326754
46382;BME280;66809;52.974;-2.514;2023-08-30T06:53:39;1001.0664975355301;;;13.327062271162383;38.71196996945404
46382;BME280;66809;52.974;-2.514;2023-08-30T06:55:39;1001.070817974324;;;13.338983700956852;38.73764505927374
46382;BME280;66809;52.974;-2.514;2023-08-30T06:57:39;1001.0741171527807;;;13.353552573302279;38.76658493296204
46382;BME280;66809;52.974;-2.514;2023-08-30T06:59:40;1001.079098030126;;;13.373683769595598;38.79718384733918
46382;BME280;66809;52.974;-2.514;2023-08-30T07:01:39;1001.0832740857472;;;13.389815466973793;38.82690476746716
46382;BME280;66809;52.974;-2.514;2023-08-30T07:03:39;1001.0857496655237;;;13.410199451799048;38.85712359018587
46382;BME280;66809;52.974;-2.514;2023-08-30T07:05:39;1001.088478793219;;;13.425978256425743;38.88842421568314
46382;BME280;66809;52.974;-2.514;2023-08-30T07:07:39;1001.0914976595469;;;13.440807601489047;38.91923349897187
46382;BME280;66809;52.974;-2.514;2023-08-30T07:09:39;1001.0952972192421;;;13.460746266826407;38.93988390418857